createdAt,value
2022-11-30T00:01:13.439Z,32.23
2022-11-30T00:03:42.682Z,30.77
2022-11-30T00:06:14.336Z,32.33
2022-11-30T00:08:41.275Z,31.93
2022-11-30T00:11:09.625Z,30.50
2022-11-30T00:13:36.405Z,34.37
2022-11-30T00:16:03.293Z,33.77
2022-11-30T00:18:32.522Z,31.93
2022-11-30T00:21:01.115Z,34.17
2022-11-30T00:23:34.926Z,31.87
2022-11-30T00:26:05.260Z,31.10
2022-11-30T00:28:32.361Z,34.80
2022-11-30T00:30:59.846Z,33.00
2022-11-30T00:33:26.722Z,34.37
2022-11-30T00:36:02.496Z,34.47
2022-11-30T00:38:31.519Z,35.67
2022-11-30T00:40:58.314Z,36.23
2022-11-30T00:43:25.015Z,37.03
2022-11-30T00:45:51.787Z,34.93
2022-11-30T00:48:18.564Z,35.50
2022-11-30T00:50:45.266Z,34.07
2022-11-30T00:53:11.981Z,36.20
2022-11-30T00:55:38.721Z,37.40
2022-11-30T00:58:07.419Z,34.83
2022-11-30T01:00:34.154Z,36.73
2022-11-30T01:03:00.918Z,36.33
2022-11-30T01:05:27.612Z,31.60
2022-11-30T01:07:56.856Z,33.97
2022-11-30T01:10:23.622Z,34.23
2022-11-30T01:12:50.307Z,38.43
2022-11-30T01:15:19.242Z,32.97
2022-11-30T01:17:45.985Z,32.43
2022-11-30T01:20:12.898Z,37.07
2022-11-30T01:22:39.626Z,38.33
2022-11-30T01:25:08.748Z,34.47
2022-11-30T01:27:37.599Z,33.17
2022-11-30T01:30:05.340Z,34.87
2022-11-30T01:32:32.110Z,38.13
2022-11-30T01:34:58.850Z,32.90
2022-11-30T01:37:25.580Z,36.80
2022-11-30T01:39:52.283Z,35.13
2022-11-30T01:42:21.877Z,36.93
2022-11-30T01:44:59.289Z,33.57
2022-11-30T01:47:30.253Z,29.27
2022-11-30T01:50:10.227Z,35.63
2022-11-30T01:52:41.466Z,35.70
2022-11-30T01:55:15.630Z,33.53
2022-11-30T01:57:51.600Z,34.23
2022-11-30T02:00:18.663Z,34.03
2022-11-30T02:03:03.498Z,34.37
2022-11-30T02:05:30.240Z,36.73
2022-11-30T02:07:57.147Z,37.20
2022-11-30T02:10:30.647Z,35.33
2022-11-30T02:13:09.695Z,32.40
2022-11-30T02:15:59.318Z,38.77
2022-11-30T02:18:31.827Z,33.17
2022-11-30T02:21:23.290Z,32.40
2022-11-30T02:23:53.014Z,35.87
2022-11-30T02:26:31.426Z,35.73
2022-11-30T02:29:00.662Z,36.27
2022-11-30T02:31:38.271Z,35.90
2022-11-30T02:34:05.240Z,33.60
2022-11-30T02:36:31.957Z,34.67
2022-11-30T02:38:58.668Z,35.10
2022-11-30T02:41:25.392Z,33.37
2022-11-30T02:43:54.209Z,33.63
2022-11-30T02:46:27.116Z,32.67
2022-11-30T02:49:00.044Z,32.83
2022-11-30T02:51:29.229Z,33.47
2022-11-30T02:53:56.139Z,32.07
2022-11-30T02:56:25.022Z,34.13
2022-11-30T02:58:52.566Z,30.87
2022-11-30T03:01:19.307Z,34.33
2022-11-30T03:03:46.141Z,34.40
2022-11-30T03:06:12.862Z,32.77
2022-11-30T03:08:39.628Z,33.20
2022-11-30T03:11:06.407Z,33.07
2022-11-30T03:13:33.683Z,35.47
2022-11-30T03:16:10.891Z,33.57
2022-11-30T03:18:37.870Z,32.33
2022-11-30T03:21:08.584Z,30.50
2022-11-30T03:23:35.708Z,32.00
2022-11-30T03:26:05.125Z,34.40
2022-11-30T03:28:32.257Z,30.97
2022-11-30T03:30:59.033Z,34.70
2022-11-30T03:33:28.310Z,31.23
2022-11-30T03:36:04.482Z,34.00
2022-11-30T03:38:31.270Z,34.43
2022-11-30T03:41:05.490Z,33.97
2022-11-30T03:43:34.819Z,33.60
2022-11-30T03:46:06.354Z,30.90
2022-11-30T03:48:36.240Z,32.30
2022-11-30T03:51:04.351Z,33.87
2022-11-30T03:53:31.205Z,35.40
2022-11-30T03:56:00.745Z,34.30
2022-11-30T03:58:30.230Z,34.20
2022-11-30T04:01:03.255Z,34.50
2022-11-30T04:03:30.003Z,40.50
2022-11-30T04:05:57.339Z,30.13
2022-11-30T04:08:26.461Z,34.80
2022-11-30T04:10:53.842Z,38.60
2022-11-30T04:13:21.170Z,32.03
2022-11-30T04:15:51.101Z,36.40
2022-11-30T04:18:18.123Z,31.83
2022-11-30T04:20:47.062Z,35.60
2022-11-30T04:23:13.766Z,37.20
2022-11-30T04:25:41.232Z,35.50
2022-11-30T04:28:08.555Z,33.73
2022-11-30T04:30:37.859Z,32.80
2022-11-30T04:33:04.748Z,36.23
2022-11-30T04:35:31.612Z,30.80
2022-11-30T04:37:58.647Z,32.93
2022-11-30T04:40:25.401Z,32.80
2022-11-30T04:42:54.315Z,36.90
2022-11-30T04:45:21.022Z,32.47
2022-11-30T04:47:47.745Z,33.77
2022-11-30T04:50:14.988Z,34.63
2022-11-30T04:52:41.729Z,33.50
2022-11-30T04:55:08.555Z,33.70
2022-11-30T04:57:37.558Z,34.17
2022-11-30T05:00:05.469Z,35.90
2022-11-30T05:02:32.238Z,32.77
2022-11-30T05:04:58.997Z,30.60
2022-11-30T05:07:25.738Z,28.97
2022-11-30T05:09:54.724Z,33.47
2022-11-30T05:12:21.419Z,33.13
2022-11-30T05:14:48.342Z,35.13
2022-11-30T05:17:17.763Z,31.63
2022-11-30T05:19:44.487Z,32.87
2022-11-30T05:22:11.192Z,29.23
2022-11-30T05:24:37.871Z,31.80
2022-11-30T05:27:13.443Z,31.17
2022-11-30T05:29:42.159Z,35.80
2022-11-30T05:32:11.365Z,32.27
2022-11-30T05:34:50.165Z,33.30
2022-11-30T05:37:18.496Z,32.37
2022-11-30T05:39:45.184Z,31.60
2022-11-30T05:42:11.870Z,32.17
2022-11-30T05:44:40.799Z,36.60
2022-11-30T05:47:07.657Z,36.27
2022-11-30T05:49:34.429Z,37.57
2022-11-30T05:52:01.119Z,36.30
2022-11-30T05:54:27.819Z,33.53
2022-11-30T05:56:55.387Z,30.37
2022-11-30T05:59:22.769Z,32.43
2022-11-30T06:01:51.358Z,28.63
2022-11-30T06:04:21.721Z,28.97
2022-11-30T06:06:52.292Z,28.63
2022-11-30T06:09:19.058Z,30.90
2022-11-30T06:11:45.738Z,27.67
2022-11-30T06:14:14.667Z,34.93
2022-11-30T06:16:41.626Z,30.43
2022-11-30T06:19:10.487Z,28.90
2022-11-30T06:21:39.357Z,30.53
2022-11-30T06:24:06.455Z,30.13
2022-11-30T06:26:33.132Z,31.93
2022-11-30T06:29:02.138Z,30.90
2022-11-30T06:31:28.969Z,32.33
2022-11-30T06:33:58.989Z,34.17
2022-11-30T06:36:26.574Z,31.67
2022-11-30T06:38:55.640Z,42.67
2022-11-30T06:41:22.869Z,35.77
2022-11-30T06:43:51.878Z,32.87
2022-11-30T06:46:18.685Z,33.43
2022-11-30T06:48:48.243Z,40.63
2022-11-30T06:51:17.187Z,36.83
2022-11-30T06:53:44.519Z,38.90
2022-11-30T06:56:11.352Z,35.80
2022-11-30T06:58:39.248Z,34.13
2022-11-30T07:01:10.393Z,40.17
2022-11-30T07:03:37.284Z,39.07
2022-11-30T07:06:13.250Z,40.67
2022-11-30T07:08:40.128Z,43.30
2022-11-30T07:11:09.216Z,38.97
2022-11-30T07:13:36.107Z,34.07
2022-11-30T07:16:06.615Z,39.57
2022-11-30T07:18:33.595Z,41.70
2022-11-30T07:21:01.061Z,36.67
2022-11-30T07:23:50.795Z,38.47
2022-11-30T07:26:23.157Z,41.63
2022-11-30T07:28:54.378Z,40.23
2022-11-30T07:31:26.025Z,35.93
2022-11-30T07:33:52.809Z,41.43
2022-11-30T07:36:20.531Z,40.43
2022-11-30T07:38:49.597Z,43.40
2022-11-30T07:41:16.339Z,40.20
2022-11-30T07:43:43.286Z,41.97
2022-11-30T07:46:14.689Z,40.30
2022-11-30T07:48:44.547Z,41.13
2022-11-30T07:51:13.727Z,39.17
2022-11-30T07:53:40.631Z,40.67
2022-11-30T07:56:12.758Z,35.77
2022-11-30T07:58:39.700Z,40.30
2022-11-30T08:01:10.690Z,37.47
2022-11-30T08:03:39.588Z,45.90
2022-11-30T08:06:11.665Z,40.60
2022-11-30T08:08:40.016Z,42.07
2022-11-30T08:11:07.414Z,37.13
2022-11-30T08:13:34.156Z,39.30
2022-11-30T08:16:07.478Z,40.07
2022-11-30T08:18:36.388Z,38.30
2022-11-30T08:21:04.312Z,35.37
2022-11-30T08:23:31.899Z,35.47
2022-11-30T08:26:08.685Z,35.03
2022-11-30T08:28:38.042Z,39.47
2022-11-30T08:31:07.646Z,38.93
2022-11-30T08:33:34.571Z,39.27
2022-11-30T08:36:07.447Z,36.20
2022-11-30T08:38:34.529Z,40.07
2022-11-30T08:41:01.391Z,32.70
2022-11-30T08:43:30.756Z,32.10
2022-11-30T08:46:11.379Z,39.80
2022-11-30T08:48:49.647Z,36.30
2022-11-30T08:51:17.557Z,38.90
2022-11-30T08:53:44.625Z,41.90
2022-11-30T08:56:13.367Z,37.20
2022-11-30T08:58:40.555Z,38.17
2022-11-30T09:01:07.350Z,38.07
2022-11-30T09:03:34.176Z,44.97
2022-11-30T09:06:09.633Z,33.27
2022-11-30T09:08:39.669Z,34.60
2022-11-30T09:11:18.965Z,40.23
2022-11-30T09:13:45.712Z,41.53
2022-11-30T09:16:13.372Z,31.10
2022-11-30T09:18:42.293Z,35.17
2022-11-30T09:21:10.366Z,37.03
2022-11-30T09:23:37.255Z,41.20
2022-11-30T09:26:06.061Z,34.20
2022-11-30T09:28:33.102Z,35.30
2022-11-30T09:31:06.840Z,32.00
2022-11-30T09:33:33.889Z,34.13
2022-11-30T09:36:03.211Z,34.67
2022-11-30T09:38:29.997Z,33.17
2022-11-30T09:40:58.114Z,34.50
2022-11-30T09:43:59.572Z,34.50
2022-11-30T09:46:30.715Z,35.43
2022-11-30T09:49:15.713Z,35.97
2022-11-30T09:51:46.348Z,38.17
2022-11-30T09:54:23.220Z,38.13
2022-11-30T09:56:52.087Z,37.40
2022-11-30T09:59:26.467Z,36.77
2022-11-30T10:01:56.946Z,31.60
2022-11-30T10:04:31.622Z,32.17
2022-11-30T10:07:05.051Z,33.47
2022-11-30T10:10:08.955Z,33.20
2022-11-30T10:12:38.047Z,32.70
2022-11-30T10:15:18.558Z,26.43
2022-11-30T10:17:55.261Z,29.43
2022-11-30T10:20:33.311Z,26.03
2022-11-30T10:23:24.117Z,25.67
2022-11-30T10:25:58.051Z,25.97
2022-11-30T10:28:48.150Z,23.57
2022-11-30T10:31:15.806Z,24.77
2022-11-30T10:33:50.655Z,26.47
2022-11-30T10:36:38.127Z,23.60
2022-11-30T10:39:27.579Z,29.47
2022-11-30T10:42:00.722Z,26.57
2022-11-30T10:44:29.924Z,26.67
2022-11-30T10:47:36.917Z,21.83
2022-11-30T10:50:07.532Z,23.40
2022-11-30T10:52:51.681Z,27.67
2022-11-30T10:55:22.744Z,31.07
2022-11-30T10:57:54.132Z,29.97
2022-11-30T11:00:21.197Z,27.30
2022-11-30T11:02:48.782Z,31.00
2022-11-30T11:05:25.479Z,34.80
2022-11-30T11:08:04.694Z,28.80
2022-11-30T11:10:36.858Z,31.57
2022-11-30T11:13:06.450Z,35.27
2022-11-30T11:15:36.526Z,28.63
2022-11-30T11:18:12.676Z,30.43
2022-11-30T11:20:42.605Z,28.37
2022-11-30T11:23:25.563Z,28.80
2022-11-30T11:25:53.302Z,28.23
2022-11-30T11:28:21.951Z,27.90
2022-11-30T11:30:48.695Z,31.57
2022-11-30T11:33:15.358Z,27.67
2022-11-30T11:35:57.140Z,31.63
2022-11-30T11:38:40.988Z,27.73
2022-11-30T11:41:21.663Z,28.10
2022-11-30T11:44:03.859Z,29.40
2022-11-30T11:46:31.845Z,27.57
2022-11-30T11:49:18.473Z,33.70
2022-11-30T11:51:45.813Z,30.77
2022-11-30T11:54:17.660Z,26.57
2022-11-30T11:56:44.405Z,25.77
2022-11-30T11:59:11.056Z,27.97
2022-11-30T12:02:02.303Z,29.97
2022-11-30T12:04:41.458Z,28.47
2022-11-30T12:07:29.838Z,27.17
2022-11-30T12:09:59.363Z,28.17
2022-11-30T12:12:29.014Z,27.20
2022-11-30T12:14:55.737Z,28.10
2022-11-30T12:17:51.173Z,27.57
2022-11-30T12:20:23.721Z,26.03
2022-11-30T12:23:15.146Z,25.43
2022-11-30T12:25:54.022Z,31.53
2022-11-30T12:28:25.450Z,30.50
2022-11-30T12:31:17.262Z,29.00
2022-11-30T12:34:01.953Z,28.07
2022-11-30T12:36:39.992Z,28.30
2022-11-30T12:39:08.338Z,30.47
2022-11-30T12:42:00.145Z,32.07
2022-11-30T12:45:12.498Z,32.80
2022-11-30T12:47:45.466Z,27.03
2022-11-30T12:50:31.028Z,28.27
2022-11-30T12:53:25.378Z,35.30
2022-11-30T12:56:10.761Z,27.93
2022-11-30T12:59:15.606Z,30.80
2022-11-30T13:02:00.299Z,27.17
2022-11-30T13:04:57.777Z,30.60
2022-11-30T13:07:52.672Z,29.33
2022-11-30T13:10:27.285Z,29.07
2022-11-30T13:12:56.573Z,26.67
2022-11-30T13:15:27.741Z,31.43
2022-11-30T13:17:54.598Z,36.43
2022-11-30T13:20:41.295Z,31.07
2022-11-30T13:23:36.123Z,33.23
2022-11-30T13:26:27.606Z,32.80
2022-11-30T13:29:18.486Z,34.43
2022-11-30T13:32:00.299Z,36.20
2022-11-30T13:34:28.278Z,28.23
2022-11-30T13:37:02.301Z,33.47
2022-11-30T13:39:54.388Z,28.07
2022-11-30T13:42:27.685Z,30.37
2022-11-30T13:44:56.649Z,32.80
2022-11-30T13:47:34.628Z,29.23
2022-11-30T13:50:09.341Z,31.53
2022-11-30T13:52:58.006Z,30.47
2022-11-30T13:55:43.191Z,31.30
2022-11-30T13:58:11.581Z,31.30
2022-11-30T14:00:38.293Z,32.63
2022-11-30T14:03:20.306Z,36.00
2022-11-30T14:05:53.107Z,34.23
2022-11-30T14:08:23.172Z,30.93
2022-11-30T14:10:54.067Z,31.90
2022-11-30T14:13:22.952Z,32.23
2022-11-30T14:16:04.619Z,32.23
2022-11-30T14:18:42.225Z,36.27
2022-11-30T14:21:24.028Z,33.77
2022-11-30T14:23:58.962Z,29.37
2022-11-30T14:26:32.342Z,33.43
2022-11-30T14:29:05.009Z,29.63
2022-11-30T14:31:53.936Z,34.60
2022-11-30T14:34:46.040Z,26.63
2022-11-30T14:37:21.261Z,27.23
2022-11-30T14:39:48.429Z,26.00
2022-11-30T14:42:28.750Z,29.10
2022-11-30T14:44:55.939Z,26.87
2022-11-30T14:47:32.995Z,26.20
2022-11-30T14:50:02.716Z,26.90
2022-11-30T14:52:56.083Z,26.93
2022-11-30T14:55:52.687Z,29.47
2022-11-30T14:58:42.409Z,27.97
2022-11-30T15:01:23.210Z,25.77
2022-11-30T15:03:50.410Z,26.13
2022-11-30T15:06:18.126Z,26.83
2022-11-30T15:08:51.019Z,30.37
2022-11-30T15:11:20.474Z,26.47
2022-11-30T15:13:50.764Z,25.27
2022-11-30T15:16:30.582Z,25.13
2022-11-30T15:18:58.132Z,26.30
2022-11-30T15:21:28.418Z,25.57
2022-11-30T15:23:56.385Z,24.77
2022-11-30T15:26:31.988Z,26.70
2022-11-30T15:28:59.897Z,28.90
2022-11-30T15:31:36.769Z,29.70
2022-11-30T15:34:03.556Z,26.77
2022-11-30T15:36:38.089Z,27.47
2022-11-30T15:39:06.704Z,27.77
2022-11-30T15:41:33.969Z,30.57
2022-11-30T15:44:02.255Z,24.53
2022-11-30T15:46:32.133Z,28.33
2022-11-30T15:49:11.000Z,30.30
2022-11-30T15:51:41.359Z,30.33
2022-11-30T15:54:10.246Z,35.10
2022-11-30T15:56:36.929Z,34.13
2022-11-30T15:59:08.947Z,35.07
2022-11-30T16:02:01.875Z,33.60
2022-11-30T16:04:29.962Z,30.23
2022-11-30T16:06:58.881Z,30.57
2022-11-30T16:09:32.130Z,33.60
2022-11-30T16:12:00.165Z,34.77
2022-11-30T16:14:27.076Z,26.60
2022-11-30T16:16:55.355Z,28.33
2022-11-30T16:19:22.437Z,28.07
2022-11-30T16:21:49.440Z,27.30
2022-11-30T16:24:16.847Z,28.50
2022-11-30T16:26:51.152Z,30.40
2022-11-30T16:29:18.365Z,34.07
2022-11-30T16:31:45.236Z,29.97
2022-11-30T16:34:12.075Z,28.57
2022-11-30T16:36:40.975Z,29.47
2022-11-30T16:39:12.949Z,28.53
2022-11-30T16:41:43.427Z,26.60
2022-11-30T16:44:13.834Z,21.07
2022-11-30T16:46:40.538Z,23.13
2022-11-30T16:49:17.285Z,27.80
2022-11-30T16:51:48.450Z,25.10
2022-11-30T16:54:18.004Z,25.87
2022-11-30T16:56:46.816Z,23.47
2022-11-30T16:59:17.003Z,24.90
2022-11-30T17:01:45.802Z,22.33
2022-11-30T17:04:20.257Z,20.73
2022-11-30T17:06:54.681Z,23.90
2022-11-30T17:09:24.918Z,24.50
2022-11-30T17:11:51.734Z,25.17
2022-11-30T17:14:22.057Z,22.27
2022-11-30T17:16:48.907Z,22.53
2022-11-30T17:19:15.651Z,21.67
2022-11-30T17:21:44.548Z,21.13
2022-11-30T17:24:11.875Z,23.23
2022-11-30T17:26:38.613Z,19.97
2022-11-30T17:29:05.337Z,20.40
2022-11-30T17:31:32.554Z,22.80
2022-11-30T17:33:59.340Z,19.40
2022-11-30T17:36:27.043Z,20.20
2022-11-30T17:38:53.844Z,19.30
2022-11-30T17:41:23.170Z,21.70
2022-11-30T17:43:49.890Z,20.73
2022-11-30T17:46:17.644Z,21.50
2022-11-30T17:48:44.627Z,22.67
2022-11-30T17:51:11.689Z,21.23
2022-11-30T17:53:39.171Z,20.07
2022-11-30T17:56:09.688Z,21.80
2022-11-30T17:58:42.955Z,21.00
2022-11-30T18:01:26.529Z,23.90
2022-11-30T18:03:55.721Z,18.90
2022-11-30T18:06:22.585Z,18.93
2022-11-30T18:08:49.269Z,18.70
2022-11-30T18:11:20.785Z,18.90
2022-11-30T18:13:51.753Z,15.97
2022-11-30T18:16:38.927Z,15.90
2022-11-30T18:19:12.388Z,15.47
2022-11-30T18:21:45.099Z,19.77
2022-11-30T18:24:12.299Z,15.23
2022-11-30T18:26:39.384Z,16.53
2022-11-30T18:29:06.548Z,17.40
2022-11-30T18:31:33.710Z,16.53
2022-11-30T18:34:06.895Z,16.40
2022-11-30T18:36:36.343Z,16.57
2022-11-30T18:39:03.099Z,16.70
2022-11-30T18:41:30.520Z,16.20
2022-11-30T18:43:57.712Z,16.70
2022-11-30T18:46:24.576Z,16.53
2022-11-30T18:48:52.038Z,15.10
2022-11-30T18:51:22.710Z,16.40
2022-11-30T18:53:49.512Z,17.83
2022-11-30T18:56:18.389Z,18.23
2022-11-30T18:58:45.199Z,18.00
2022-11-30T19:01:20.005Z,16.17
2022-11-30T19:03:57.479Z,15.70
2022-11-30T19:06:29.920Z,17.30
2022-11-30T19:09:02.267Z,15.67
2022-11-30T19:11:29.042Z,16.40
2022-11-30T19:13:59.130Z,15.67
2022-11-30T19:16:29.021Z,16.13
2022-11-30T19:18:59.575Z,15.20
2022-11-30T19:21:27.216Z,16.43
2022-11-30T19:23:54.218Z,14.40
2022-11-30T19:26:21.199Z,18.60
2022-11-30T19:28:50.116Z,16.50
2022-11-30T19:31:18.445Z,16.10
2022-11-30T19:33:49.104Z,19.97
2022-11-30T19:36:22.299Z,16.27
2022-11-30T19:38:51.477Z,17.53
2022-11-30T19:41:20.925Z,19.00
2022-11-30T19:43:59.605Z,19.30
2022-11-30T19:46:31.946Z,20.47
2022-11-30T19:49:01.831Z,23.37
2022-11-30T19:51:29.454Z,17.23
2022-11-30T19:53:57.669Z,23.87
2022-11-30T19:56:27.071Z,21.17
2022-11-30T19:58:53.897Z,18.70
2022-11-30T20:01:25.271Z,19.13
2022-11-30T20:03:53.277Z,19.17
2022-11-30T20:06:20.109Z,21.23
2022-11-30T20:08:49.046Z,22.07
2022-11-30T20:11:18.215Z,24.20
2022-11-30T20:13:46.027Z,18.50
2022-11-30T20:16:14.224Z,18.53
2022-11-30T20:18:45.670Z,21.30
2022-11-30T20:21:19.449Z,17.77
2022-11-30T20:23:49.384Z,24.40
2022-11-30T20:26:18.022Z,16.53
2022-11-30T20:28:48.722Z,21.23
2022-11-30T20:31:16.318Z,16.57
2022-11-30T20:33:43.652Z,17.10
2022-11-30T20:36:13.346Z,16.67
2022-11-30T20:38:43.313Z,17.73
2022-11-30T20:41:11.905Z,14.97
2022-11-30T20:43:38.893Z,14.37
2022-11-30T20:46:25.726Z,27.47
2022-11-30T20:48:52.674Z,20.73
2022-11-30T20:51:32.135Z,18.23
2022-11-30T20:54:03.571Z,14.97
2022-11-30T20:56:30.750Z,19.53
2022-11-30T20:59:02.975Z,17.83
2022-11-30T21:01:29.842Z,19.03
2022-11-30T21:03:56.675Z,18.07
2022-11-30T21:06:23.484Z,17.67
2022-11-30T21:08:52.273Z,19.80
2022-11-30T21:11:20.081Z,20.70
2022-11-30T21:13:47.986Z,18.20
2022-11-30T21:16:25.608Z,25.10
2022-11-30T21:18:54.528Z,20.57
2022-11-30T21:21:22.750Z,22.50
2022-11-30T21:23:51.727Z,21.63
2022-11-30T21:26:22.659Z,19.70
2022-11-30T21:28:50.314Z,20.30
2022-11-30T21:31:20.023Z,18.50
2022-11-30T21:33:53.224Z,15.83
2022-11-30T21:36:20.584Z,19.33
2022-11-30T21:38:51.279Z,20.23
2022-11-30T21:41:22.681Z,18.93
2022-11-30T21:43:49.363Z,21.17
2022-11-30T21:46:17.713Z,24.13
2022-11-30T21:48:45.997Z,22.67
2022-11-30T21:51:16.615Z,21.13
2022-11-30T21:53:46.741Z,19.30
2022-11-30T21:56:18.364Z,25.57
2022-11-30T21:58:46.034Z,21.67
2022-11-30T22:01:36.927Z,22.93
2022-11-30T22:04:04.340Z,22.83
2022-11-30T22:06:31.671Z,23.17
2022-11-30T22:09:03.087Z,20.47
2022-11-30T22:11:30.495Z,23.10
2022-11-30T22:13:57.178Z,21.60
2022-11-30T22:16:24.756Z,22.70
2022-11-30T22:18:55.255Z,22.03
2022-11-30T22:21:25.505Z,22.63
2022-11-30T22:24:02.458Z,25.97
2022-11-30T22:26:36.909Z,22.70
2022-11-30T22:29:05.788Z,23.10
2022-11-30T22:31:34.650Z,22.40
2022-11-30T22:34:01.525Z,21.30
2022-11-30T22:36:33.628Z,24.57
2022-11-30T22:39:13.083Z,21.70
2022-11-30T22:41:40.506Z,24.30
2022-11-30T22:44:07.335Z,22.40
2022-11-30T22:46:35.052Z,24.40
2022-11-30T22:49:02.453Z,23.10
2022-11-30T22:51:29.952Z,24.23
2022-11-30T22:53:59.181Z,24.97
2022-11-30T22:56:30.602Z,23.07
2022-11-30T22:58:59.958Z,21.53
2022-11-30T23:01:30.476Z,24.10
2022-11-30T23:04:02.094Z,24.23
2022-11-30T23:06:28.900Z,23.53
2022-11-30T23:08:55.632Z,25.60
2022-11-30T23:11:25.779Z,25.93
2022-11-30T23:13:52.831Z,24.67
2022-11-30T23:16:21.964Z,25.03
2022-11-30T23:18:54.639Z,24.23
2022-11-30T23:21:25.878Z,22.57
2022-11-30T23:23:52.934Z,23.63
2022-11-30T23:26:29.358Z,23.57
2022-11-30T23:28:58.262Z,27.17
2022-11-30T23:31:33.737Z,25.90
2022-11-30T23:34:03.102Z,25.67
2022-11-30T23:36:32.146Z,28.13
2022-11-30T23:39:00.618Z,22.47
2022-11-30T23:41:27.413Z,26.63
2022-11-30T23:43:54.243Z,24.23
2022-11-30T23:46:21.134Z,24.43
2022-11-30T23:48:47.948Z,22.80
2022-11-30T23:51:14.666Z,21.40
2022-11-30T23:53:43.900Z,23.07
2022-11-30T23:56:13.142Z,23.40
2022-11-30T23:58:39.888Z,25.90
